Weather at Detroit Metropolitan Wayne County Airport

Public forecast

Using degrees Fahrenheit for public forecast. Weather courtesy of forecast.io.

Current aviation weather report (METAR) for Detroit Metropolitan Wayne County Airport

2023/09/30 12:53 (retrieved 35 minutes ago)

KDTW 301253Z 34003KT 1 1/2SM BR SCT003 SCT200 16/14 A3028 RMK AO2 SLP253 T01560144

Aviation forecast (TAF) for Detroit Metropolitan Wayne County Airport

2023/09/30 12:22 (retrieved 1 hour ago)

TAF KDTW 301120Z 3012/0118 00000KT 1/2SM FG BKN002 FM301330 00000KT 1SM BR BKN004 FM301400 00000KT 2SM BR BKN005 FM301500 14004KT P6SM SKC FM010800 VRB02KT 1 1/2SM BR SKC FM011400 10004KT P6SM SCT120